Airfield :
LOGIN :

Register | Disclaimer

   EN    FR    IT 

 










Legend :    VFR   Marginal VFR   IFR   Intensive IFR   Very Intensive IFR
Visi :
Ceiling :
>= 8 km
>= 3000ft
5 to 8 km
1000 to 3000 ft
1500m to 5 km
500 to 1000 ft
800 to 1500m
200 to 500 ft
< 800m
< 200 ft
Symbols :   Thunderstorms  Fog  Heavy snow  Heavy precipitations  Wind > 20 kt
SIGMETs :     Misc.  Thunderstorms  Icing  Turbulence  Mountain Waves  Volcanic Ashes






- Airport Elevation : 885 ft
- IATA code : BAS


LFSB - Bale-Mulhouse

CURRENT METAR :
  • 150630Z 15003KT 100V180 CAVOK 12/12 Q1007 NOSIG

EXPIRED METARs :
  • 150600Z 23003KT CAVOK 11/11 Q1007 NOSIG
  • 150530Z 23005KT CAVOK 11/11 Q1007 NOSIG
  • 150500Z 23002KT CAVOK 11/11 Q1007 NOSIG
  • 150430Z 26003KT 230V300 CAVOK 11/11 Q1007 NOSIG
  • 150400Z VRB02KT CAVOK 11/10 Q1007 NOSIG
  • 150330Z VRB02KT CAVOK 11/10 Q1007 NOSIG

TAF TAF LFSB
Valid from the 15 at 06:00 until the 16 at 06:00 UTC


150500Z 1506/1606 26005KT CAVOK
TEMPO 1512/1521 -RA BKN030
PROB40
TEMPO 1515/1519 29015G25KT 4000 RA SCT025TCU
BECMG 1523/1602 VRB02KT
Met : +33 3 89 90 31 11



MET'MAP, your aeronautical weather chart ! - Copyright ORBIFLY December 2007 - Disclaimer

ORBIFLY MET'MAP TEAM :

Programming & Development : Alexandra Zaïnal
Concept & Development : Baudouin d'Aumeries
Co-Development & Prog : Marc-Olivier Méhu
Technical & hardware support : Manuel Goepfert

Contact : metmap@orbifly.com




SOURCES & CREDITS :

   NOAA